sensor_id;sensor_type;location;lat;lon;timestamp;temperature;humidity
36790;DHT22;22740;52.182;8.780;2022-11-09T00:01:02;13.90;99.90
36790;DHT22;22740;52.182;8.780;2022-11-09T00:07:04;13.90;99.90
36790;DHT22;22740;52.182;8.780;2022-11-09T00:13:06;13.90;99.90
36790;DHT22;22740;52.182;8.780;2022-11-09T00:19:08;14.00;99.90
36790;DHT22;22740;52.182;8.780;2022-11-09T00:25:10;13.90;99.90
36790;DHT22;22740;52.182;8.780;2022-11-09T00:31:15;13.90;99.90
36790;DHT22;22740;52.182;8.780;2022-11-09T00:37:17;13.90;99.90
36790;DHT22;22740;52.182;8.780;2022-11-09T00:43:19;14.00;99.90
36790;DHT22;22740;52.182;8.780;2022-11-09T00:49:22;13.90;99.90
36790;DHT22;22740;52.182;8.780;2022-11-09T00:55:23;13.90;99.90
36790;DHT22;22740;52.182;8.780;2022-11-09T01:01:25;13.90;99.90
36790;DHT22;22740;52.182;8.780;2022-11-09T01:07:27;14.00;99.90
36790;DHT22;22740;52.182;8.780;2022-11-09T01:13:29;14.00;99.90
36790;DHT22;22740;52.182;8.780;2022-11-09T01:19:30;14.00;99.90
36790;DHT22;22740;52.182;8.780;2022-11-09T01:25:32;14.00;99.90
36790;DHT22;22740;52.182;8.780;2022-11-09T01:31:34;14.00;99.90
36790;DHT22;22740;52.182;8.780;2022-11-09T01:37:35;14.10;99.90
36790;DHT22;22740;52.182;8.780;2022-11-09T01:43:37;14.10;99.90
36790;DHT22;22740;52.182;8.780;2022-11-09T01:49:43;14.10;99.90
36790;DHT22;22740;52.182;8.780;2022-11-09T01:55:49;14.20;99.90
36790;DHT22;22740;52.182;8.780;2022-11-09T02:01:52;14.20;99.90
36790;DHT22;22740;52.182;8.780;2022-11-09T02:07:54;14.20;99.90
36790;DHT22;22740;52.182;8.780;2022-11-09T02:13:58;14.30;99.90
36790;DHT22;22740;52.182;8.780;2022-11-09T02:20:05;14.30;99.90
36790;DHT22;22740;52.182;8.780;2022-11-09T02:26:08;14.30;99.90
36790;DHT22;22740;52.182;8.780;2022-11-09T02:32:20;14.30;99.90
36790;DHT22;22740;52.182;8.780;2022-11-09T02:38:23;14.30;99.90
36790;DHT22;22740;52.182;8.780;2022-11-09T02:44:25;14.30;99.90
36790;DHT22;22740;52.182;8.780;2022-11-09T02:50:28;14.30;99.90
36790;DHT22;22740;52.182;8.780;2022-11-09T02:56:30;14.30;99.90
36790;DHT22;22740;52.182;8.780;2022-11-09T03:02:32;14.20;99.90
36790;DHT22;22740;52.182;8.780;2022-11-09T03:08:34;14.30;99.90
36790;DHT22;22740;52.182;8.780;2022-11-09T03:14:35;14.20;99.90
36790;DHT22;22740;52.182;8.780;2022-11-09T03:20:37;14.30;99.90
36790;DHT22;22740;52.182;8.780;2022-11-09T03:26:39;14.30;99.90
36790;DHT22;22740;52.182;8.780;2022-11-09T03:32:40;14.20;99.90
36790;DHT22;22740;52.182;8.780;2022-11-09T03:38:47;14.10;99.90
36790;DHT22;22740;52.182;8.780;2022-11-09T03:44:49;14.10;99.90
36790;DHT22;22740;52.182;8.780;2022-11-09T03:50:50;14.10;99.90
36790;DHT22;22740;52.182;8.780;2022-11-09T03:56:52;14.00;99.90
36790;DHT22;22740;52.182;8.780;2022-11-09T04:02:54;14.00;99.90
36790;DHT22;22740;52.182;8.780;2022-11-09T04:08:56;14.00;99.90
36790;DHT22;22740;52.182;8.780;2022-11-09T04:14:57;14.00;99.90
36790;DHT22;22740;52.182;8.780;2022-11-09T04:20:59;13.90;99.90
36790;DHT22;22740;52.182;8.780;2022-11-09T04:27:01;13.80;99.90
36790;DHT22;22740;52.182;8.780;2022-11-09T04:33:03;13.80;99.90
36790;DHT22;22740;52.182;8.780;2022-11-09T04:39:05;13.70;99.90
36790;DHT22;22740;52.182;8.780;2022-11-09T04:45:07;13.70;99.90
36790;DHT22;22740;52.182;8.780;2022-11-09T04:51:09;13.70;99.90
36790;DHT22;22740;52.182;8.780;2022-11-09T04:57:13;13.70;99.90
36790;DHT22;22740;52.182;8.780;2022-11-09T05:03:15;13.70;99.90
36790;DHT22;22740;52.182;8.780;2022-11-09T05:09:17;13.70;99.90
36790;DHT22;22740;52.182;8.780;2022-11-09T05:15:19;13.70;99.90
36790;DHT22;22740;52.182;8.780;2022-11-09T05:21:21;13.60;99.90
36790;DHT22;22740;52.182;8.780;2022-11-09T05:27:23;13.70;99.90
36790;DHT22;22740;52.182;8.780;2022-11-09T05:33:24;13.80;99.90
36790;DHT22;22740;52.182;8.780;2022-11-09T05:39:26;13.80;99.90
36790;DHT22;22740;52.182;8.780;2022-11-09T05:45:28;13.80;99.90
36790;DHT22;22740;52.182;8.780;2022-11-09T05:51:43;13.80;99.90
36790;DHT22;22740;52.182;8.780;2022-11-09T05:57:45;13.80;99.90
36790;DHT22;22740;52.182;8.780;2022-11-09T06:03:47;13.70;99.90
36790;DHT22;22740;52.182;8.780;2022-11-09T06:09:49;13.70;99.90
36790;DHT22;22740;52.182;8.780;2022-11-09T06:15:52;13.70;99.90
36790;DHT22;22740;52.182;8.780;2022-11-09T06:21:54;13.70;99.90
36790;DHT22;22740;52.182;8.780;2022-11-09T06:27:56;13.80;99.90
36790;DHT22;22740;52.182;8.780;2022-11-09T06:33:58;13.70;99.90
36790;DHT22;22740;52.182;8.780;2022-11-09T06:40:00;13.70;99.90
36790;DHT22;22740;52.182;8.780;2022-11-09T06:46:03;13.60;99.90
36790;DHT22;22740;52.182;8.780;2022-11-09T06:52:05;13.60;99.90
36790;DHT22;22740;52.182;8.780;2022-11-09T06:58:08;13.60;99.90
36790;DHT22;22740;52.182;8.780;2022-11-09T07:04:11;13.70;99.90
36790;DHT22;22740;52.182;8.780;2022-11-09T07:10:13;13.70;99.90
36790;DHT22;22740;52.182;8.780;2022-11-09T07:16:15;13.90;99.90
36790;DHT22;22740;52.182;8.780;2022-11-09T07:22:19;13.90;99.90
36790;DHT22;22740;52.182;8.780;2022-11-09T07:28:21;13.80;99.90
36790;DHT22;22740;52.182;8.780;2022-11-09T07:34:23;13.80;99.90
36790;DHT22;22740;52.182;8.780;2022-11-09T07:40:24;13.70;99.90
36790;DHT22;22740;52.182;8.780;2022-11-09T07:46:26;13.70;99.90
36790;DHT22;22740;52.182;8.780;2022-11-09T07:52:28;13.70;99.90
36790;DHT22;22740;52.182;8.780;2022-11-09T07:58:30;13.70;99.90
36790;DHT22;22740;52.182;8.780;2022-11-09T08:04:32;13.80;99.90
36790;DHT22;22740;52.182;8.780;2022-11-09T08:10:34;13.80;99.90
36790;DHT22;22740;52.182;8.780;2022-11-09T08:16:36;13.90;99.90
36790;DHT22;22740;52.182;8.780;2022-11-09T08:22:41;13.80;99.90
36790;DHT22;22740;52.182;8.780;2022-11-09T08:28:43;13.80;99.90
36790;DHT22;22740;52.182;8.780;2022-11-09T08:34:45;13.80;99.90
36790;DHT22;22740;52.182;8.780;2022-11-09T08:40:47;13.70;99.90
36790;DHT22;22740;52.182;8.780;2022-11-09T08:46:49;13.70;99.90
36790;DHT22;22740;52.182;8.780;2022-11-09T08:52:50;13.70;99.90
36790;DHT22;22740;52.182;8.780;2022-11-09T08:58:52;13.80;99.90
36790;DHT22;22740;52.182;8.780;2022-11-09T09:04:54;13.70;99.90
36790;DHT22;22740;52.182;8.780;2022-11-09T09:10:56;13.80;99.90
36790;DHT22;22740;52.182;8.780;2022-11-09T09:16:58;13.80;99.90
36790;DHT22;22740;52.182;8.780;2022-11-09T09:23:00;13.80;99.90
36790;DHT22;22740;52.182;8.780;2022-11-09T09:29:02;13.80;99.90
36790;DHT22;22740;52.182;8.780;2022-11-09T09:35:03;14.00;99.90
36790;DHT22;22740;52.182;8.780;2022-11-09T09:41:05;14.20;99.90
36790;DHT22;22740;52.182;8.780;2022-11-09T09:47:16;14.40;99.90
36790;DHT22;22740;52.182;8.780;2022-11-09T09:53:26;14.60;99.90
36790;DHT22;22740;52.182;8.780;2022-11-09T09:59:40;14.80;99.90
36790;DHT22;22740;52.182;8.780;2022-11-09T10:24:08;14.40;99.90
36790;DHT22;22740;52.182;8.780;2022-11-09T10:30:14;14.40;99.90
36790;DHT22;22740;52.182;8.780;2022-11-09T10:36:22;14.50;99.90
36790;DHT22;22740;52.182;8.780;2022-11-09T10:42:24;14.90;99.90
36790;DHT22;22740;52.182;8.780;2022-11-09T10:48:36;15.30;99.90
36790;DHT22;22740;52.182;8.780;2022-11-09T10:54:38;15.10;99.90
36790;DHT22;22740;52.182;8.780;2022-11-09T11:07:11;14.80;99.90
36790;DHT22;22740;52.182;8.780;2022-11-09T11:13:20;14.70;99.90
36790;DHT22;22740;52.182;8.780;2022-11-09T11:19:35;14.90;99.90
36790;DHT22;22740;52.182;8.780;2022-11-09T11:26:01;15.10;99.90
36790;DHT22;22740;52.182;8.780;2022-11-09T11:31:59;15.10;99.90
36790;DHT22;22740;52.182;8.780;2022-11-09T11:38:07;14.80;99.90
36790;DHT22;22740;52.182;8.780;2022-11-09T11:56:48;15.20;99.90
36790;DHT22;22740;52.182;8.780;2022-11-09T12:03:05;15.60;99.90
36790;DHT22;22740;52.182;8.780;2022-11-09T12:21:30;15.90;99.90
36790;DHT22;22740;52.182;8.780;2022-11-09T12:33:44;16.10;99.90
36790;DHT22;22740;52.182;8.780;2022-11-09T12:39:51;15.80;99.90
36790;DHT22;22740;52.182;8.780;2022-11-09T12:45:53;15.50;99.90
36790;DHT22;22740;52.182;8.780;2022-11-09T12:51:55;15.50;99.90
36790;DHT22;22740;52.182;8.780;2022-11-09T12:57:59;15.60;99.90
36790;DHT22;22740;52.182;8.780;2022-11-09T13:04:02;15.10;99.90
36790;DHT22;22740;52.182;8.780;2022-11-09T13:10:04;14.80;99.90
36790;DHT22;22740;52.182;8.780;2022-11-09T13:16:10;14.80;99.90
36790;DHT22;22740;52.182;8.780;2022-11-09T13:34:48;14.70;99.90
36790;DHT22;22740;52.182;8.780;2022-11-09T13:40:51;14.70;99.90
36790;DHT22;22740;52.182;8.780;2022-11-09T13:46:54;14.80;99.90
36790;DHT22;22740;52.182;8.780;2022-11-09T13:52:56;14.70;99.90
36790;DHT22;22740;52.182;8.780;2022-11-09T14:05:03;14.70;99.90
36790;DHT22;22740;52.182;8.780;2022-11-09T14:11:09;14.60;99.90
36790;DHT22;22740;52.182;8.780;2022-11-09T14:23:21;14.50;99.90
36790;DHT22;22740;52.182;8.780;2022-11-09T14:29:24;14.50;99.90
36790;DHT22;22740;52.182;8.780;2022-11-09T14:35:27;14.40;99.90
36790;DHT22;22740;52.182;8.780;2022-11-09T14:41:30;14.50;99.90
36790;DHT22;22740;52.182;8.780;2022-11-09T14:47:32;14.50;99.90
36790;DHT22;22740;52.182;8.780;2022-11-09T14:53:36;14.40;99.90
36790;DHT22;22740;52.182;8.780;2022-11-09T14:59:38;14.20;99.90
36790;DHT22;22740;52.182;8.780;2022-11-09T15:05:42;14.20;99.90
36790;DHT22;22740;52.182;8.780;2022-11-09T15:11:44;14.00;99.90
36790;DHT22;22740;52.182;8.780;2022-11-09T15:17:46;14.10;99.90
36790;DHT22;22740;52.182;8.780;2022-11-09T15:23:48;14.00;99.90
36790;DHT22;22740;52.182;8.780;2022-11-09T15:29:50;13.90;99.90
36790;DHT22;22740;52.182;8.780;2022-11-09T15:36:02;13.80;99.90
36790;DHT22;22740;52.182;8.780;2022-11-09T15:42:05;13.80;99.90
36790;DHT22;22740;52.182;8.780;2022-11-09T15:48:07;13.80;99.90
36790;DHT22;22740;52.182;8.780;2022-11-09T15:54:09;13.80;99.90
36790;DHT22;22740;52.182;8.780;2022-11-09T16:00:12;13.80;99.90
36790;DHT22;22740;52.182;8.780;2022-11-09T16:06:21;13.80;99.90
36790;DHT22;22740;52.182;8.780;2022-11-09T16:12:24;13.80;99.90
36790;DHT22;22740;52.182;8.780;2022-11-09T16:18:25;13.80;99.90
36790;DHT22;22740;52.182;8.780;2022-11-09T16:24:28;13.80;99.90
36790;DHT22;22740;52.182;8.780;2022-11-09T16:30:30;13.80;99.90
36790;DHT22;22740;52.182;8.780;2022-11-09T16:36:31;13.70;99.90
36790;DHT22;22740;52.182;8.780;2022-11-09T16:42:35;13.50;99.90
36790;DHT22;22740;52.182;8.780;2022-11-09T16:48:37;13.50;99.90
36790;DHT22;22740;52.182;8.780;2022-11-09T16:54:39;13.50;99.90
36790;DHT22;22740;52.182;8.780;2022-11-09T17:00:44;13.40;99.90
36790;DHT22;22740;52.182;8.780;2022-11-09T17:07:10;13.30;99.90
36790;DHT22;22740;52.182;8.780;2022-11-09T17:13:12;13.20;99.90
36790;DHT22;22740;52.182;8.780;2022-11-09T17:19:13;13.10;99.90
36790;DHT22;22740;52.182;8.780;2022-11-09T17:25:15;13.00;99.90
36790;DHT22;22740;52.182;8.780;2022-11-09T17:31:21;13.00;99.90
36790;DHT22;22740;52.182;8.780;2022-11-09T17:37:23;13.00;99.90
36790;DHT22;22740;52.182;8.780;2022-11-09T17:43:27;13.00;99.90
36790;DHT22;22740;52.182;8.780;2022-11-09T17:49:29;13.00;99.90
36790;DHT22;22740;52.182;8.780;2022-11-09T17:55:30;12.80;99.90
36790;DHT22;22740;52.182;8.780;2022-11-09T18:01:32;12.80;99.90
36790;DHT22;22740;52.182;8.780;2022-11-09T18:07:41;12.70;99.90
36790;DHT22;22740;52.182;8.780;2022-11-09T18:13:43;12.70;99.90
36790;DHT22;22740;52.182;8.780;2022-11-09T18:19:44;12.70;99.90
36790;DHT22;22740;52.182;8.780;2022-11-09T18:25:56;12.60;99.90
36790;DHT22;22740;52.182;8.780;2022-11-09T18:31:58;12.60;99.90
36790;DHT22;22740;52.182;8.780;2022-11-09T18:37:59;12.50;99.90
36790;DHT22;22740;52.182;8.780;2022-11-09T18:44:01;12.40;99.90
36790;DHT22;22740;52.182;8.780;2022-11-09T18:50:03;12.40;99.90
36790;DHT22;22740;52.182;8.780;2022-11-09T18:56:06;12.30;99.90
36790;DHT22;22740;52.182;8.780;2022-11-09T19:02:10;12.20;99.90
36790;DHT22;22740;52.182;8.780;2022-11-09T19:08:12;12.20;99.90
36790;DHT22;22740;52.182;8.780;2022-11-09T19:14:14;12.20;99.90
36790;DHT22;22740;52.182;8.780;2022-11-09T19:20:15;12.30;99.90
36790;DHT22;22740;52.182;8.780;2022-11-09T19:26:19;12.30;99.90
36790;DHT22;22740;52.182;8.780;2022-11-09T19:32:20;12.20;99.90
36790;DHT22;22740;52.182;8.780;2022-11-09T19:38:22;12.20;99.90
36790;DHT22;22740;52.182;8.780;2022-11-09T19:44:24;12.10;99.90
36790;DHT22;22740;52.182;8.780;2022-11-09T19:50:26;12.10;99.90
36790;DHT22;22740;52.182;8.780;2022-11-09T19:56:28;12.20;99.90
36790;DHT22;22740;52.182;8.780;2022-11-09T20:02:30;12.10;99.90
36790;DHT22;22740;52.182;8.780;2022-11-09T20:08:32;12.20;99.90
36790;DHT22;22740;52.182;8.780;2022-11-09T20:14:34;12.10;99.90
36790;DHT22;22740;52.182;8.780;2022-11-09T20:20:36;12.10;99.90
36790;DHT22;22740;52.182;8.780;2022-11-09T20:26:38;12.10;99.90
36790;DHT22;22740;52.182;8.780;2022-11-09T20:32:40;12.20;99.90
36790;DHT22;22740;52.182;8.780;2022-11-09T20:38:42;12.20;99.90
36790;DHT22;22740;52.182;8.780;2022-11-09T20:44:44;12.20;99.90
36790;DHT22;22740;52.182;8.780;2022-11-09T20:50:46;12.20;99.90
36790;DHT22;22740;52.182;8.780;2022-11-09T20:56:47;12.20;99.90
36790;DHT22;22740;52.182;8.780;2022-11-09T21:02:49;12.20;99.90
36790;DHT22;22740;52.182;8.780;2022-11-09T21:08:53;12.00;99.90
36790;DHT22;22740;52.182;8.780;2022-11-09T21:14:55;12.10;99.90
36790;DHT22;22740;52.182;8.780;2022-11-09T21:21:01;12.00;99.90
36790;DHT22;22740;52.182;8.780;2022-11-09T21:27:03;12.10;99.90
36790;DHT22;22740;52.182;8.780;2022-11-09T21:33:23;12.00;99.90
36790;DHT22;22740;52.182;8.780;2022-11-09T21:39:25;11.90;99.90
36790;DHT22;22740;52.182;8.780;2022-11-09T21:45:27;11.90;99.90
36790;DHT22;22740;52.182;8.780;2022-11-09T21:51:29;11.90;99.90
36790;DHT22;22740;52.182;8.780;2022-11-09T21:57:30;11.80;99.90
36790;DHT22;22740;52.182;8.780;2022-11-09T22:03:32;11.70;99.90
36790;DHT22;22740;52.182;8.780;2022-11-09T22:09:34;11.50;99.90
36790;DHT22;22740;52.182;8.780;2022-11-09T22:15:57;11.50;99.90
36790;DHT22;22740;52.182;8.780;2022-11-09T22:22:07;11.50;99.90
36790;DHT22;22740;52.182;8.780;2022-11-09T22:28:09;11.40;99.90
36790;DHT22;22740;52.182;8.780;2022-11-09T22:34:11;11.30;99.90
36790;DHT22;22740;52.182;8.780;2022-11-09T22:40:12;11.30;99.90
36790;DHT22;22740;52.182;8.780;2022-11-09T22:46:15;11.30;99.90
36790;DHT22;22740;52.182;8.780;2022-11-09T22:52:17;11.30;99.90
36790;DHT22;22740;52.182;8.780;2022-11-09T22:58:18;11.30;99.90
36790;DHT22;22740;52.182;8.780;2022-11-09T23:04:20;11.50;99.90
36790;DHT22;22740;52.182;8.780;2022-11-09T23:10:22;11.40;99.90
36790;DHT22;22740;52.182;8.780;2022-11-09T23:16:24;11.40;99.90
36790;DHT22;22740;52.182;8.780;2022-11-09T23:22:26;11.40;99.90
36790;DHT22;22740;52.182;8.780;2022-11-09T23:28:28;11.40;99.90
36790;DHT22;22740;52.182;8.780;2022-11-09T23:34:30;11.40;99.90
36790;DHT22;22740;52.182;8.780;2022-11-09T23:40:32;11.40;99.90
36790;DHT22;22740;52.182;8.780;2022-11-09T23:46:34;11.50;99.90
36790;DHT22;22740;52.182;8.780;2022-11-09T23:52:36;11.40;99.90
36790;DHT22;22740;52.182;8.780;2022-11-09T23:58:38;11.40;99.90
